Latest Weather Observations for Jabiru

IDD60801

Issued at 10:01 pm CST Tuesday 30 May 2017 (issued every 30 minutes, with the page automatically refreshed every 10 minutes)

About weather observations | Map of weather stations | Latest weather observations for NT | Other Formats
Station Details ID: 014198 Name: JABIRU AIRPORT Lat: -12.66 Lon: 132.89 Height: 26.5 m
Data from the previous 72 hours. | See also: Recent months at Jabiru
Date/Time
CST
Temp
°C
App
Temp
°C
Dew
Point
°C
Rel
Hum
%
Delta-T
°C
Wind Press
QNH
hPa
Press
MSL
hPa
Rain since
9am
mm
Dir  Spd
km/h
Gust
km/h
Spd
kts
Gust
kts
30/10:00pm 26.3 24.2 9.6 35 9.2 ESE 11 19 6 10 1016.1 1015.9 0.0
30/09:30pm 27.0 24.4 9.4 33 9.7 SE 13 20 7 11 1016.3 1016.1 0.0
30/09:00pm 27.3 24.7 9.2 32 10.0 ESE 13 26 7 14 1016.0 1015.8 0.0
30/08:30pm 27.6 24.9 9.0 31 10.2 ESE 13 26 7 14 1015.6 1015.4 0.0
30/08:00pm 28.1 25.6 8.4 29 10.8 SE 11 20 6 11 1015.2 1015.0 0.0
30/07:30pm 28.7 25.4 7.9 27 11.3 SE 15 24 8 13 1014.4 1014.2 0.0
30/07:00pm 29.2 26.3 8.3 27 11.5 ESE 13 24 7 13 1014.0 1013.8 0.0
30/06:30pm 29.4 26.2 8.5 27 11.5 SE 15 24 8 13 1013.5 1013.3 0.0
30/06:00pm 30.0 27.3 9.0 27 11.7 SE 13 20 7 11 1013.1 1012.9 0.0
30/05:30pm 31.0 28.4 9.3 26 12.2 SE 13 19 7 10 1012.7 1012.5 0.0
30/05:00pm 31.7 28.7 9.3 25 12.6 SE 15 24 8 13 1012.1 1011.9 0.0
30/04:30pm 32.1 28.7 9.0 24 13.0 ESE 17 28 9 15 1012.0 1011.8 0.0
30/04:00pm 32.7 30.0 8.9 23 13.4 SE 13 24 7 13 1011.9 1011.7 0.0
30/03:30pm 32.5 28.6 9.3 24 13.1 SE 20 33 11 18 1011.8 1011.6 0.0
30/03:00pm 32.6 29.4 10.0 25 12.9 SE 17 26 9 14 1011.7 1011.5 0.0
30/02:30pm 32.1 28.1 8.4 23 13.2 ESE 19 33 10 18 1012.1 1011.9 0.0
30/02:00pm 32.6 28.2 8.8 23 13.4 SE 22 32 12 17 1012.4 1012.2 0.0
30/01:30pm 31.7 26.9 7.4 22 13.3 ESE 22 37 12 20 1012.8 1012.6 0.0
30/01:00pm 31.8 27.8 6.8 21 13.5 ESE 17 30 9 16 1013.1 1012.9 0.0
30/12:30pm 31.1 26.0 6.2 21 13.3 SE 22 33 12 18 1013.9 1013.7 0.0
30/12:00pm 30.6 25.2 6.5 22 12.9 ESE 24 35 13 19 1014.4 1014.2 0.0
30/11:30am 29.9 25.2 5.9 22 12.7 ESE 20 33 11 18 1014.7 1014.5 0.0
30/11:00am 29.4 24.5 6.7 24 12.1 SE 22 35 12 19 1015.0 1014.8 0.0
30/10:30am 29.0 24.7 7.0 25 11.8 SE 19 30 10 16 1015.1 1014.9 0.0
30/10:00am 28.0 23.2 7.3 27 11.1 SE 22 37 12 20 1015.4 1015.2 0.0
30/09:30am 27.4 23.9 8.8 31 10.2 SE 17 30 9 16 1015.5 1015.3 0.0
30/09:00am 26.6 23.3 9.5 34 9.4 ESE 17 26 9 14 1015.2 1015.0 0.0
30/08:30am 25.8 23.7 11.2 40 8.3 ESE 13 24 7 13 1015.1 1014.9 0.0
30/08:00am 24.9 24.3 13.5 49 6.7 ESE 9 17 5 9 1014.8 1014.6 0.0
30/07:30am 24.2 23.7 14.9 56 5.6 SE 11 22 6 12 1014.5 1014.3 0.0
30/07:00am 23.9 23.2 15.4 59 5.1 SE 13 20 7 11 1014.2 1014.0 0.0
30/06:30am 24.0 23.2 15.2 58 5.3 SE 13 24 7 13 1013.9 1013.7 0.0
30/06:00am 24.0 23.3 14.4 55 5.7 SE 11 20 6 11 1013.9 1013.7 0.0
30/05:30am 23.9 23.7 14.6 56 5.5 SSE 9 15 5 8 1013.6 1013.4 0.0
30/05:00am 24.1 23.8 14.5 55 5.7 SE 9 19 5 10 1013.5 1013.3 0.0
30/04:30am 24.6 24.1 15.0 55 5.8 SE 11 19 6 10 1013.5 1013.3 0.0
30/04:00am 24.6 24.1 15.8 58 5.3 SE 13 19 7 10 1013.3 1013.1 0.0
30/03:30am 24.5 25.3 17.2 63 4.5 SE 9 15 5 8 1013.6 1013.4 0.0
30/03:00am 24.9 25.2 17.9 65 4.4 SE 13 20 7 11 1013.8 1013.6 0.0
30/02:30am 24.9 25.8 18.4 67 4.1 ESE 11 17 6 9 1013.8 1013.6 0.0
30/02:00am 25.2 25.7 18.4 66 4.3 ESE 13 19 7 10 1014.1 1013.9 0.0
30/01:30am 25.5 26.1 18.7 66 4.3 SE 13 20 7 11 1014.4 1014.2 0.0
30/01:00am 25.9 26.0 18.3 63 4.8 ESE 15 24 8 13 1014.2 1014.0 0.0
30/12:30am 26.1 25.7 18.0 61 5.1 ESE 17 30 9 16 1014.1 1013.9 0.0
30/12:00am 26.7 26.3 18.0 59 5.5 SE 17 30 9 16 1014.2 1014.0 0.0
 
Date/Time
CST
Temp
°C
App
Temp
°C
Dew
Point
°C
Rel
Hum
%
Delta-T
°C
Wind Press
QNH
hPa
Press
MSL
hPa
Rain since
9am
mm
Dir  Spd
km/h
Gust
km/h
Spd
kts
Gust
kts
29/11:30pm 27.0 26.2 18.0 58 5.7 ESE 19 32 10 17 1014.1 1013.9 0.0
29/11:00pm 27.1 27.4 17.8 56 5.9 ESE 13 20 7 11 1014.2 1014.0 0.0
29/10:30pm 27.2 27.7 17.4 55 6.2 ESE 11 17 6 9 1014.2 1014.0 0.0
29/10:00pm 27.3 27.3 15.3 48 7.3 SE 9 11 5 6 1014.2 1014.0 0.0
29/09:30pm 27.1 27.4 15.1 47 7.3 SE 7 11 4 6 1014.1 1013.9 0.0
29/09:00pm 27.3 27.6 15.0 47 7.4 ESE 7 9 4 5 1014.0 1013.8 0.0
29/08:30pm 27.7 28.0 15.0 45 7.7 ESE 7 9 4 5 1013.8 1013.6 0.0
29/08:00pm 28.6 28.1 14.8 43 8.4 ESE 11 15 6 8 1013.3 1013.1 0.0
29/07:30pm 29.2 28.4 15.0 42 8.7 ESE 13 17 7 9 1013.1 1012.9 0.0
29/07:00pm 29.6 28.4 15.0 41 8.9 ESE 15 22 8 12 1012.6 1012.4 0.0
29/06:30pm 29.7 29.8 15.4 42 8.8 ESE 9 15 5 8 1012.1 1011.9 0.0
29/06:00pm 30.8 29.7 15.2 38 9.6 E 15 24 8 13 1011.7 1011.5 0.0
29/05:30pm 31.7 30.0 14.8 36 10.4 E 17 26 9 14 1011.3 1011.1 0.0
29/05:00pm 31.8 30.5 14.9 36 10.4 E 15 24 8 13 1011.3 1011.1 0.0
29/04:30pm 31.8 29.4 14.4 34 10.6 ESE 20 30 11 16 1011.2 1011.0 0.0
29/04:00pm 32.7 30.5 14.8 34 11.0 E 20 30 11 16 1011.2 1011.0 0.0
29/03:30pm 33.2 31.0 14.8 33 11.4 E 20 32 11 17 1011.4 1011.2 0.0
29/03:00pm 33.6 30.9 13.6 29 12.2 E 20 30 11 16 1011.5 1011.3 0.0
29/02:30pm 33.3 29.8 13.4 30 12.0 ENE 24 39 13 21 1011.4 1011.2 0.0
29/02:00pm 33.3 30.4 12.9 29 12.2 E 20 33 11 18 1011.3 1011.1 0.0
29/01:30pm 33.4 30.9 14.0 31 11.9 ESE 20 32 11 17 1011.6 1011.4 0.0
29/01:00pm 33.5 30.4 13.5 29 12.1 E 22 30 12 16 1012.0 1011.8 0.0
29/12:30pm 32.9 30.4 14.0 32 11.5 E 20 32 11 17 1012.4 1012.2 0.0
29/12:00pm 32.6 28.6 14.2 32 11.2 E 28 39 15 21 1012.9 1012.7 0.0
29/11:30am 32.5 29.2 15.1 35 10.8 E 26 35 14 19 1013.3 1013.1 0.0
29/11:00am 31.2 26.7 13.9 35 10.5 E 30 44 16 24 1013.5 1013.3 0.0
29/10:30am 30.7 26.1 13.5 35 10.3 E 30 43 16 23 1013.7 1013.5 0.0
29/10:00am 30.5 26.7 13.7 35 10.1 E 26 39 14 21 1013.5 1013.3 0.0
29/09:30am 28.9 25.7 14.3 40 8.8 E 24 37 13 20 1013.6 1013.4 0.0
29/09:00am 28.3 26.2 15.2 44 8.0 E 20 26 11 14 1013.6 1013.4 0.0
29/08:30am 27.7 26.6 16.3 49 7.1 E 17 26 9 14 1013.3 1013.1 0.0
29/08:00am 25.8 25.1 16.4 56 5.8 E 15 20 8 11 1013.0 1012.8 0.0
29/07:30am 25.6 24.6 16.5 57 5.6 E 17 28 9 15 1012.9 1012.7 0.0
29/07:00am 25.3 23.8 16.2 57 5.6 E 19 30 10 16 1012.5 1012.3 0.0
29/06:30am 25.2 24.3 15.8 56 5.7 ESE 15 20 8 11 1012.5 1012.3 0.0
29/06:00am 25.4 25.2 15.7 55 5.9 ESE 11 17 6 9 1012.3 1012.1 0.0
29/05:30am 25.5 25.4 16.1 56 5.8 E 11 17 6 9 1012.1 1011.9 0.0
29/05:00am 25.7 25.3 16.3 56 5.8 ESE 13 20 7 11 1012.0 1011.8 0.0
29/04:30am 25.8 26.1 16.9 58 5.5 ESE 11 17 6 9 1012.0 1011.8 0.0
29/04:00am 26.0 26.1 17.4 59 5.4 E 13 22 7 12 1011.9 1011.7 0.0
29/03:30am 26.0 26.2 17.6 60 5.3 ESE 13 17 7 9 1012.0 1011.8 0.0
29/03:00am 26.2 26.8 17.8 60 5.3 E 11 24 6 13 1012.1 1011.9 0.0
29/02:30am 26.4 26.9 17.5 58 5.6 ESE 11 22 6 12 1012.4 1012.2 0.0
29/02:00am 26.8 25.5 17.3 56 6.0 E 20 30 11 16 1012.5 1012.3 0.0
29/01:30am 26.9 26.1 17.1 55 6.1 ESE 17 28 9 15 1012.5 1012.3 0.0
29/01:00am 27.2 27.0 17.7 56 6.0 ESE 15 22 8 12 1012.6 1012.4 0.0
29/12:30am 27.5 27.4 17.9 55 6.1 ESE 15 24 8 13 1012.7 1012.5 0.0
29/12:00am 27.7 26.9 18.1 56 6.1 ESE 19 32 10 17 1012.9 1012.7 0.0
 
Date/Time
CST
Temp
°C
App
Temp
°C
Dew
Point
°C
Rel
Hum
%
Delta-T
°C
Wind Press
QNH
hPa
Press
MSL
hPa
Rain since
9am
mm
Dir  Spd
km/h
Gust
km/h
Spd
kts
Gust
kts
28/11:30pm 27.9 27.7 18.6 57 6.0 ESE 17 24 9 13 1013.0 1012.8 0.0
28/11:00pm 28.0 28.4 18.1 55 6.3 ESE 13 20 7 11 1012.9 1012.7 0.0
28/10:30pm 28.0 28.6 17.8 54 6.5 ESE 11 17 6 9 1013.0 1012.8 0.0
28/10:00pm 28.2 28.9 17.1 51 7.0 SE 9 20 5 11 1012.8 1012.6 0.0
28/09:30pm 28.9 29.4 17.4 49 7.3 SE 11 19 6 10 1012.7 1012.5 0.0
28/09:00pm 28.5 29.6 17.1 50 7.2 SE 7 11 4 6 1012.4 1012.2 0.0
28/08:30pm 28.1 29.0 16.7 50 7.1 ESE 7 9 4 5 1011.9 1011.7 0.0
28/08:00pm 28.6 29.5 16.5 48 7.5 ESE 7 11 4 6 1011.6 1011.4 0.0
28/07:30pm 29.1 29.5 16.3 46 8.0 ESE 9 13 5 7 1011.4 1011.2 0.0
28/07:00pm 29.0 29.4 16.2 46 7.9 ESE 9 13 5 7 1011.1 1010.9 0.0
28/06:30pm 29.8 29.8 16.2 43 8.5 ESE 11 19 6 10 1010.9 1010.7 0.0
28/06:00pm 30.2 30.0 16.6 44 8.5 ESE 13 19 7 10 1010.7 1010.5 0.0
28/05:30pm 31.2 30.9 16.4 41 9.3 ESE 13 20 7 11 1010.6 1010.4 0.0
28/05:00pm 31.6 31.1 16.0 39 9.7 ESE 13 20 7 11 1010.3 1010.1 0.0
28/04:30pm 32.1 31.9 16.8 40 9.7 ESE 13 22 7 12 1010.1 1009.9 0.0
28/04:00pm 32.2 31.6 15.7 37 10.3 ESE 13 20 7 11 1010.1 1009.9 0.0
28/03:30pm 32.8 31.3 15.3 34 10.9 ESE 17 24 9 13 1010.0 1009.8 0.0
28/03:00pm 32.6 31.6 14.7 34 11.0 ESE 13 20 7 11 1010.2 1010.0 0.0
28/02:30pm 32.3 30.7 14.0 33 11.1 E 15 22 8 12 1010.3 1010.1 0.0
28/02:00pm 32.7 30.4 12.9 30 11.9 ESE 17 32 9 17 1010.5 1010.3 0.0
28/01:30pm 31.9 29.4 12.2 30 11.6 SE 17 26 9 14 1011.0 1010.8 0.0
28/01:00pm 32.0 28.9 12.3 30 11.7 ESE 20 32 11 17 1011.6 1011.4 0.0
28/12:30pm 31.9 28.8 12.2 30 11.6 ESE 20 30 11 16 1012.0 1011.8 0.0
28/12:00pm 32.4 29.4 12.1 29 12.0 E 19 30 10 16 1012.6 1012.4 0.0
28/11:30am 31.1 27.9 12.0 31 11.2 ESE 20 32 11 17 1013.0 1012.8 0.0
28/11:00am 30.7 27.2 12.1 32 10.9 ESE 22 37 12 20 1013.3 1013.1 0.0
28/10:30am 29.9 27.2 12.8 35 10.1 SE 19 32 10 17 1013.5 1013.3 0.0
28/10:00am 29.3 26.7 13.9 39 9.2 ESE 20 37 11 20 1013.4 1013.2 0.0
28/09:30am 28.4 24.7 15.0 44 8.2 ESE 28 37 15 20 1013.3 1013.1 0.0
28/09:23am 28.7 26.0 15.6 45 8.1 E 24 37 13 20 1013.3 1013.1 0.0
28/09:00am 27.4 28.2 17.3 54 6.3 ESE 9 15 5 8 1013.2 1013.0 0.0
28/08:30am 26.3 28.0 18.4 61 5.0 E 7 11 4 6 1013.1 1012.9 0.0
28/08:00am 25.2 26.9 18.4 66 4.3 ESE 7 11 4 6 1012.8 1012.6 0.0
28/07:30am 24.6 26.3 18.1 67 4.1 ESE 6 9 3 5 1012.7 1012.5 0.0
28/07:00am 24.8 25.9 18.0 66 4.3 ESE 9 13 5 7 1012.4 1012.2 0.0
28/06:30am 24.8 26.1 18.5 68 4.0 ESE 9 13 5 7 1012.2 1012.0 0.0
28/06:00am 24.9 26.5 19.1 70 3.7 ESE 9 11 5 6 1012.0 1011.8 0.0
28/05:30am 25.0 26.3 18.4 66 4.2 ESE 9 11 5 6 1011.8 1011.6 0.0
28/05:00am 25.3 27.0 18.5 66 4.3 E 7 11 4 6 1011.7 1011.5 0.0
28/04:30am 25.3 26.9 18.2 64 4.5 E 7 9 4 5 1011.7 1011.5 0.0
28/04:00am 25.5 27.2 18.4 65 4.5 ESE 7 11 4 6 1011.7 1011.5 0.0
28/03:30am 25.6 27.2 18.3 64 4.6 ESE 7 11 4 6 1011.8 1011.6 0.0
28/03:00am 25.9 27.3 18.6 64 4.7 E 9 17 5 9 1012.2 1012.0 0.0
28/02:30am 26.1 26.9 18.2 61 5.0 ESE 11 19 6 10 1012.5 1012.3 0.0
28/02:00am 26.2 27.3 18.1 61 5.1 ESE 9 15 5 8 1012.6 1012.4 0.0
28/01:30am 26.4 27.1 18.0 60 5.3 E 11 17 6 9 1012.8 1012.6 0.0
28/01:00am 26.4 28.0 18.3 61 5.1 E 7 11 4 6 1013.2 1013.0 0.0
28/12:30am 26.7 28.2 18.0 59 5.5 ESE 7 11 4 6 1013.3 1013.1 0.0
28/12:00am 27.2 27.1 17.9 56 5.9 ESE 15 20 8 11 1013.4 1013.2 0.0
 
Date/Time
CST
Temp
°C
App
Temp
°C
Dew
Point
°C
Rel
Hum
%
Delta-T
°C
Wind Press
QNH
hPa
Press
MSL
hPa
Rain since
9am
mm
Dir  Spd
km/h
Gust
km/h
Spd
kts
Gust
kts
27/11:30pm 27.7 27.3 18.1 56 6.1 ESE 17 26 9 14 1013.4 1013.2 0.0
27/11:00pm 27.5 27.8 17.9 55 6.1 ESE 13 22 7 12 1013.4 1013.2 0.0
27/10:30pm 27.6 27.8 17.7 54 6.3 ESE 13 19 7 10 1013.1 1012.9 0.0

Other Formats:

Comma delimited format used in spreadsheet applications
http://www.bom.gov.au/fwo/IDD60801/IDD60801.94137.axf

JavaScript Object Notation format (JSON) in row-major order
http://www.bom.gov.au/fwo/IDD60801/IDD60801.94137.json